createdAt,value
2018-05-09T00:01:30.075Z,2.97
2018-05-09T00:04:02.623Z,3.28
2018-05-09T00:06:35.193Z,3.20
2018-05-09T00:09:07.744Z,2.90
2018-05-09T00:11:40.307Z,3.33
2018-05-09T00:14:12.844Z,2.95
2018-05-09T00:16:45.398Z,3.28
2018-05-09T00:19:17.919Z,3.22
2018-05-09T00:21:50.488Z,3.42
2018-05-09T00:24:23.024Z,3.10
2018-05-09T00:26:55.598Z,3.00
2018-05-09T00:29:28.193Z,3.33
2018-05-09T00:32:00.750Z,3.17
2018-05-09T00:34:33.314Z,2.90
2018-05-09T00:37:05.881Z,3.53
2018-05-09T00:39:38.424Z,3.28
2018-05-09T00:42:10.986Z,3.83
2018-05-09T00:44:43.564Z,3.60
2018-05-09T00:47:16.107Z,3.50
2018-05-09T00:49:48.696Z,3.03
2018-05-09T00:52:21.278Z,3.40
2018-05-09T00:54:53.889Z,3.03
2018-05-09T00:57:26.440Z,3.20
2018-05-09T00:59:59.022Z,3.92
2018-05-09T01:02:31.585Z,3.60
2018-05-09T01:05:04.145Z,3.50
2018-05-09T01:07:36.681Z,3.23
2018-05-09T01:10:09.264Z,3.40
2018-05-09T01:12:41.813Z,3.20
2018-05-09T01:15:14.363Z,3.28
2018-05-09T01:17:46.891Z,3.35
2018-05-09T01:20:19.432Z,3.40
2018-05-09T01:22:51.965Z,3.40
2018-05-09T01:25:24.616Z,3.50
2018-05-09T01:27:57.161Z,3.47
2018-05-09T01:30:29.713Z,3.10
2018-05-09T01:33:02.247Z,3.30
2018-05-09T01:35:34.811Z,3.30
2018-05-09T01:38:07.377Z,3.30
2018-05-09T01:40:39.952Z,3.10
2018-05-09T01:43:12.507Z,3.20
2018-05-09T01:45:45.055Z,3.70
2018-05-09T01:48:17.596Z,3.28
2018-05-09T01:50:50.143Z,3.30
2018-05-09T01:53:22.689Z,3.40
2018-05-09T01:55:55.240Z,3.70
2018-05-09T01:58:27.793Z,3.42
2018-05-09T02:01:00.345Z,3.55
2018-05-09T02:03:32.868Z,3.40
2018-05-09T02:06:05.532Z,3.43
2018-05-09T02:08:37.986Z,3.73
2018-05-09T02:11:10.551Z,3.30
2018-05-09T02:13:43.088Z,3.50
2018-05-09T02:16:15.654Z,3.42
2018-05-09T02:18:48.195Z,3.50
2018-05-09T02:21:20.765Z,3.10
2018-05-09T02:23:53.305Z,3.40
2018-05-09T02:26:25.948Z,3.43
2018-05-09T02:28:58.483Z,3.23
2018-05-09T02:31:31.072Z,3.67
2018-05-09T02:34:03.614Z,3.50
2018-05-09T02:36:36.190Z,3.00
2018-05-09T02:39:08.768Z,3.67
2018-05-09T02:41:41.314Z,3.40
2018-05-09T02:44:13.854Z,3.55
2018-05-09T02:46:46.410Z,4.20
2018-05-09T02:49:18.948Z,4.00
2018-05-09T02:51:51.511Z,3.70
2018-05-09T02:54:24.060Z,3.33
2018-05-09T02:56:56.623Z,3.77
2018-05-09T02:59:29.161Z,3.80
2018-05-09T03:02:01.726Z,3.90
2018-05-09T03:04:34.272Z,3.97
2018-05-09T03:07:06.850Z,3.80
2018-05-09T03:09:39.376Z,3.77
2018-05-09T03:12:11.943Z,3.80
2018-05-09T03:14:44.480Z,3.20
2018-05-09T03:17:17.033Z,3.67
2018-05-09T03:19:49.557Z,3.90
2018-05-09T03:22:22.126Z,3.87
2018-05-09T03:24:54.706Z,4.20
2018-05-09T03:27:27.248Z,3.53
2018-05-09T03:29:59.850Z,3.30
2018-05-09T03:32:32.384Z,3.50
2018-05-09T03:35:04.921Z,3.30
2018-05-09T03:37:37.482Z,4.00
2018-05-09T03:40:10.006Z,3.53
2018-05-09T03:42:42.642Z,3.60
2018-05-09T03:45:15.171Z,3.90
2018-05-09T03:47:47.735Z,3.87
2018-05-09T03:50:20.271Z,4.00
2018-05-09T03:52:52.824Z,3.90
2018-05-09T03:55:25.369Z,3.53
2018-05-09T03:57:57.916Z,3.40
2018-05-09T04:00:30.524Z,4.00
2018-05-09T04:03:14.987Z,3.70
2018-05-09T04:05:59.407Z,3.60
2018-05-09T04:08:43.935Z,3.50
2018-05-09T04:11:16.516Z,3.63
2018-05-09T04:13:49.046Z,4.00
2018-05-09T04:16:21.595Z,3.50
2018-05-09T04:18:54.824Z,3.50
2018-05-09T04:21:27.372Z,4.20
2018-05-09T04:23:59.905Z,3.67
2018-05-09T04:26:32.460Z,3.67
2018-05-09T04:29:05.027Z,3.17
2018-05-09T04:31:37.572Z,3.53
2018-05-09T04:34:10.115Z,3.67
2018-05-09T04:36:42.688Z,3.97
2018-05-09T04:39:15.228Z,3.57
2018-05-09T04:41:47.795Z,3.87
2018-05-09T04:44:20.311Z,3.78
2018-05-09T04:46:52.887Z,3.45
2018-05-09T04:49:25.420Z,3.50
2018-05-09T04:51:58.012Z,3.67
2018-05-09T04:54:30.570Z,3.70
2018-05-09T04:57:03.127Z,3.80
2018-05-09T04:59:35.688Z,3.90
2018-05-09T05:02:08.241Z,4.37
2018-05-09T05:04:40.782Z,4.10
2018-05-09T05:07:13.365Z,3.90
2018-05-09T05:09:45.909Z,4.30
2018-05-09T05:12:18.455Z,4.55
2018-05-09T05:14:51.009Z,4.87
2018-05-09T05:17:23.565Z,4.35
2018-05-09T05:19:56.129Z,4.22
2018-05-09T05:22:28.717Z,4.30
2018-05-09T05:25:01.277Z,3.67
2018-05-09T05:27:33.849Z,4.18
2018-05-09T05:30:06.400Z,4.30
2018-05-09T05:32:39.013Z,3.87
2018-05-09T05:35:11.507Z,4.20
2018-05-09T05:37:44.078Z,3.90
2018-05-09T05:40:16.618Z,3.90
2018-05-09T05:42:49.177Z,4.20
2018-05-09T05:45:21.729Z,4.60
2018-05-09T05:47:54.362Z,4.15
2018-05-09T05:50:26.915Z,3.40
2018-05-09T05:52:59.466Z,3.65
2018-05-09T05:55:32.002Z,3.70
2018-05-09T05:58:04.577Z,3.28
2018-05-09T06:00:37.150Z,3.78
2018-05-09T06:03:09.718Z,3.92
2018-05-09T06:05:42.256Z,3.70
2018-05-09T06:08:14.832Z,3.80
2018-05-09T06:10:47.385Z,3.60
2018-05-09T06:13:19.959Z,3.25
2018-05-09T06:15:52.513Z,3.50
2018-05-09T06:18:25.090Z,3.30
2018-05-09T06:20:57.641Z,3.60
2018-05-09T06:23:30.201Z,3.50
2018-05-09T06:26:02.757Z,3.47
2018-05-09T06:28:35.333Z,3.65
2018-05-09T06:31:07.878Z,4.10
2018-05-09T06:33:40.442Z,3.80
2018-05-09T06:36:13.001Z,3.90
2018-05-09T06:38:45.618Z,3.40
2018-05-09T06:41:18.167Z,3.50
2018-05-09T06:43:50.761Z,3.58
2018-05-09T06:46:23.293Z,3.70
2018-05-09T06:48:55.879Z,3.78
2018-05-09T06:51:28.426Z,3.72
2018-05-09T06:54:00.990Z,3.70
2018-05-09T06:56:33.568Z,3.35
2018-05-09T06:59:06.152Z,3.37
2018-05-09T07:01:38.718Z,3.78
2018-05-09T07:04:11.287Z,3.78
2018-05-09T07:06:44.170Z,3.28
2018-05-09T07:09:16.440Z,3.22
2018-05-09T07:11:48.992Z,3.85
2018-05-09T07:14:21.558Z,4.03
2018-05-09T07:16:54.107Z,3.25
2018-05-09T07:19:26.670Z,3.62
2018-05-09T07:21:59.220Z,3.00
2018-05-09T07:24:31.830Z,3.00
2018-05-09T07:27:04.389Z,4.00
2018-05-09T07:29:36.973Z,3.80
2018-05-09T07:32:09.543Z,3.87
2018-05-09T07:34:42.105Z,3.72
2018-05-09T07:37:14.700Z,3.80
2018-05-09T07:39:47.290Z,3.78
2018-05-09T07:42:19.876Z,3.30
2018-05-09T07:44:52.443Z,3.50
2018-05-09T07:47:25.003Z,3.25
2018-05-09T07:49:57.536Z,3.42
2018-05-09T07:52:30.094Z,3.15
2018-05-09T07:55:02.638Z,3.62
2018-05-09T07:57:35.205Z,3.42
2018-05-09T08:00:07.799Z,3.70
2018-05-09T08:02:40.374Z,3.45
2018-05-09T08:05:12.919Z,3.35
2018-05-09T08:07:45.500Z,3.87
2018-05-09T08:10:18.052Z,3.80
2018-05-09T08:12:50.729Z,3.58
2018-05-09T08:15:23.213Z,3.58
2018-05-09T08:17:55.783Z,3.33
2018-05-09T08:20:28.364Z,3.75
2018-05-09T08:23:00.956Z,3.58
2018-05-09T08:25:33.531Z,3.87
2018-05-09T08:28:06.137Z,3.97
2018-05-09T08:30:38.851Z,3.55
2018-05-09T08:33:11.798Z,3.70
2018-05-09T08:35:44.354Z,3.33
2018-05-09T08:38:17.021Z,3.08
2018-05-09T08:40:49.530Z,3.40
2018-05-09T08:43:22.192Z,3.53
2018-05-09T08:45:54.707Z,3.60
2018-05-09T08:48:27.306Z,3.67
2018-05-09T08:50:59.855Z,3.60
2018-05-09T08:53:32.426Z,3.53
2018-05-09T08:56:04.965Z,3.90
2018-05-09T08:58:37.540Z,3.58
2018-05-09T09:01:10.074Z,3.80
2018-05-09T09:03:42.662Z,3.35
2018-05-09T09:06:15.204Z,4.43
2018-05-09T09:08:47.789Z,4.00
2018-05-09T09:11:20.336Z,3.50
2018-05-09T09:13:52.913Z,4.18
2018-05-09T09:16:25.480Z,3.78
2018-05-09T09:18:58.060Z,3.70
2018-05-09T09:21:30.625Z,3.95
2018-05-09T09:24:03.221Z,4.25
2018-05-09T09:26:35.778Z,3.55
2018-05-09T09:29:08.533Z,3.92
2018-05-09T09:31:40.964Z,4.10
2018-05-09T09:34:13.550Z,3.90
2018-05-09T09:36:46.123Z,3.70
2018-05-09T09:39:18.678Z,3.75
2018-05-09T09:41:51.417Z,3.70
2018-05-09T09:44:24.163Z,3.62
2018-05-09T09:46:56.762Z,3.50
2018-05-09T09:49:29.343Z,4.07
2018-05-09T09:52:01.921Z,3.92
2018-05-09T09:54:35.476Z,3.80
2018-05-09T09:57:08.119Z,3.72
2018-05-09T09:59:40.705Z,3.78
2018-05-09T10:02:13.295Z,3.47
2018-05-09T10:04:45.885Z,3.70
2018-05-09T10:07:18.439Z,3.85
2018-05-09T10:09:53.642Z,3.60
2018-05-09T10:12:26.213Z,3.80
2018-05-09T10:14:58.809Z,3.22
2018-05-09T10:17:31.381Z,3.80
2018-05-09T10:20:03.963Z,4.05
2018-05-09T10:22:36.519Z,3.83
2018-05-09T10:25:09.122Z,3.45
2018-05-09T10:27:41.703Z,3.70
2018-05-09T10:30:14.282Z,4.10
2018-05-09T10:32:46.868Z,3.87
2018-05-09T10:35:19.450Z,4.18
2018-05-09T10:37:52.210Z,4.03
2018-05-09T10:40:24.800Z,3.90
2018-05-09T10:47:49.556Z,3.72
2018-05-09T10:50:22.075Z,3.65
2018-05-09T10:52:54.584Z,4.18
2018-05-09T10:55:27.115Z,3.50
2018-05-09T10:57:59.611Z,3.87
2018-05-09T11:00:32.872Z,3.50
2018-05-09T11:03:05.370Z,3.70
2018-05-09T11:05:37.901Z,4.20
2018-05-09T11:08:10.403Z,4.00
2018-05-09T11:10:42.927Z,3.60
2018-05-09T11:13:15.476Z,3.85
2018-05-09T11:15:48.004Z,4.20
2018-05-09T11:18:20.507Z,3.97
2018-05-09T11:20:53.033Z,3.87
2018-05-09T11:23:25.546Z,3.80
2018-05-09T11:25:58.079Z,3.87
2018-05-09T11:28:30.641Z,3.60
2018-05-09T11:31:03.644Z,4.53
2018-05-09T11:33:36.166Z,4.37
2018-05-09T11:36:08.664Z,4.80
2018-05-09T11:38:41.179Z,4.28
2018-05-09T11:41:13.688Z,4.57
2018-05-09T11:43:46.219Z,4.35
2018-05-09T11:46:18.714Z,4.10
2018-05-09T11:48:51.235Z,4.47
2018-05-09T11:51:23.730Z,4.90
2018-05-09T11:53:56.268Z,4.12
2018-05-09T11:56:28.780Z,4.22
2018-05-09T11:59:01.299Z,3.65
2018-05-09T12:01:34.828Z,4.05
2018-05-09T12:04:07.343Z,3.90
2018-05-09T12:06:39.861Z,4.20
2018-05-09T12:09:12.396Z,4.32
2018-05-09T12:11:44.892Z,4.18
2018-05-09T12:14:17.417Z,4.40
2018-05-09T12:16:49.923Z,4.07
2018-05-09T12:19:22.447Z,4.20
2018-05-09T12:21:54.986Z,4.20
2018-05-09T12:24:27.596Z,4.55
2018-05-09T12:27:00.097Z,4.45
2018-05-09T12:29:33.109Z,4.05
2018-05-09T12:32:05.617Z,4.70
2018-05-09T12:34:38.142Z,4.22
2018-05-09T12:37:10.656Z,4.50
2018-05-09T12:39:43.196Z,4.30
2018-05-09T12:42:15.701Z,4.00
2018-05-09T12:44:48.224Z,4.62
2018-05-09T12:47:20.729Z,4.28
2018-05-09T12:49:53.257Z,4.05
2018-05-09T12:52:25.746Z,4.07
2018-05-09T12:54:58.264Z,4.50
2018-05-09T12:57:30.767Z,4.78
2018-05-09T13:00:04.000Z,4.60
2018-05-09T13:02:36.497Z,4.18
2018-05-09T13:05:09.016Z,4.37
2018-05-09T13:07:41.520Z,4.45
2018-05-09T13:10:14.038Z,3.85
2018-05-09T13:12:46.536Z,4.10
2018-05-09T13:15:19.057Z,3.80
2018-05-09T13:17:51.555Z,4.37
2018-05-09T13:20:24.094Z,3.87
2018-05-09T13:22:56.590Z,4.10
2018-05-09T13:25:29.099Z,4.87
2018-05-09T13:28:01.883Z,3.95
2018-05-09T13:30:34.405Z,4.35
2018-05-09T13:33:06.909Z,3.60
2018-05-09T13:35:39.427Z,3.83
2018-05-09T13:38:11.945Z,3.85
2018-05-09T13:40:44.456Z,3.97
2018-05-09T13:43:16.959Z,4.60
2018-05-09T13:45:49.499Z,3.67
2018-05-09T13:48:21.989Z,3.65
2018-05-09T13:50:54.494Z,4.00
2018-05-09T13:53:26.987Z,4.00
2018-05-09T13:55:59.505Z,4.07
2018-05-09T13:58:31.995Z,4.45
2018-05-09T14:01:04.503Z,4.25
2018-05-09T14:03:37.026Z,3.50
2018-05-09T14:06:09.536Z,3.35
2018-05-09T14:08:42.025Z,4.32
2018-05-09T14:11:14.544Z,3.62
2018-05-09T14:13:47.048Z,3.87
2018-05-09T14:16:19.564Z,4.37
2018-05-09T14:18:52.056Z,3.72
2018-05-09T14:21:24.628Z,3.70
2018-05-09T14:23:57.146Z,4.30
2018-05-09T14:26:29.683Z,3.40
2018-05-09T14:29:02.740Z,3.87
2018-05-09T14:31:35.296Z,3.90
2018-05-09T14:34:07.771Z,3.90
2018-05-09T14:36:40.280Z,3.90
2018-05-09T14:39:12.783Z,3.70
2018-05-09T14:41:45.307Z,3.62
2018-05-09T14:44:17.832Z,3.80
2018-05-09T14:46:50.362Z,3.53
2018-05-09T14:49:22.871Z,3.58
2018-05-09T14:51:55.376Z,3.55
2018-05-09T14:54:27.878Z,3.58
2018-05-09T14:57:00.414Z,3.62
2018-05-09T14:59:32.941Z,3.40
2018-05-09T15:02:06.249Z,3.50
2018-05-09T15:04:38.743Z,3.35
2018-05-09T15:07:11.243Z,3.53
2018-05-09T15:09:43.743Z,3.70
2018-05-09T15:12:16.312Z,4.28
2018-05-09T15:14:48.843Z,3.70
2018-05-09T15:17:21.339Z,3.90
2018-05-09T15:19:53.906Z,3.67
2018-05-09T15:22:26.403Z,3.85
2018-05-09T15:24:58.920Z,3.72
2018-05-09T15:27:31.414Z,3.05
2018-05-09T15:30:03.981Z,3.75
2018-05-09T15:32:36.476Z,3.85
2018-05-09T15:35:09.317Z,3.78
2018-05-09T15:37:41.808Z,4.12
2018-05-09T15:40:14.337Z,3.72
2018-05-09T15:42:46.846Z,3.37
2018-05-09T15:45:19.366Z,4.00
2018-05-09T15:47:51.873Z,3.55
2018-05-09T15:50:24.399Z,4.10
2018-05-09T15:52:56.909Z,3.80
2018-05-09T15:55:29.427Z,4.07
2018-05-09T15:58:01.929Z,4.28
2018-05-09T16:00:34.452Z,4.03
2018-05-09T16:03:06.958Z,3.83
2018-05-09T16:05:39.481Z,4.20
2018-05-09T16:08:11.987Z,4.20
2018-05-09T16:10:44.505Z,4.20
2018-05-09T16:13:17.016Z,3.78
2018-05-09T16:15:49.541Z,3.85
2018-05-09T16:18:22.046Z,3.65
2018-05-09T16:20:54.577Z,3.90
2018-05-09T16:23:27.108Z,4.20
2018-05-09T16:25:59.632Z,4.00
2018-05-09T16:28:32.765Z,4.30
2018-05-09T16:31:05.279Z,4.22
2018-05-09T16:33:37.781Z,3.95
2018-05-09T16:36:10.313Z,3.87
2018-05-09T16:38:42.828Z,3.95
2018-05-09T16:41:15.364Z,4.15
2018-05-09T16:43:47.969Z,3.80
2018-05-09T16:46:20.503Z,4.05
2018-05-09T16:48:53.004Z,4.55
2018-05-09T16:51:25.521Z,3.40
2018-05-09T16:54:01.014Z,3.83
2018-05-09T16:56:33.564Z,5.05
2018-05-09T16:59:06.087Z,3.60
2018-05-09T17:01:38.667Z,4.18
2018-05-09T17:04:11.197Z,3.80
2018-05-09T17:06:43.770Z,3.87
2018-05-09T17:09:16.293Z,3.95
2018-05-09T17:11:48.857Z,4.07
2018-05-09T17:14:21.398Z,3.62
2018-05-09T17:16:53.967Z,3.72
2018-05-09T17:19:26.503Z,3.72
2018-05-09T17:22:16.548Z,4.22
2018-05-09T17:24:49.115Z,3.55
2018-05-09T17:27:21.656Z,3.50
2018-05-09T17:29:54.215Z,4.18
2018-05-09T17:32:26.772Z,3.65
2018-05-09T17:34:59.303Z,4.07
2018-05-09T17:37:31.861Z,3.75
2018-05-09T17:40:04.384Z,3.75
2018-05-09T17:42:37.033Z,3.50
2018-05-09T17:45:09.522Z,3.70
2018-05-09T17:47:42.064Z,3.75
2018-05-09T17:50:14.634Z,3.75
2018-05-09T17:52:47.167Z,3.87
2018-05-09T17:55:19.719Z,3.70
2018-05-09T17:57:52.280Z,4.00
2018-05-09T18:00:24.848Z,4.12
2018-05-09T18:02:57.394Z,3.62
2018-05-09T18:05:29.934Z,4.50
2018-05-09T18:08:02.475Z,3.95
2018-05-09T18:10:35.039Z,3.67
2018-05-09T18:13:07.577Z,3.70
2018-05-09T18:15:40.124Z,4.20
2018-05-09T18:18:12.648Z,4.28
2018-05-09T18:20:45.201Z,4.07
2018-05-09T18:23:17.720Z,3.90
2018-05-09T18:25:50.262Z,3.40
2018-05-09T18:28:22.775Z,3.83
2018-05-09T18:30:55.317Z,3.62
2018-05-09T18:33:27.863Z,3.75
2018-05-09T18:36:00.397Z,3.55
2018-05-09T18:38:33.688Z,3.65
2018-05-09T18:41:06.249Z,3.83
2018-05-09T18:43:38.771Z,3.72
2018-05-09T18:46:11.390Z,4.18
2018-05-09T18:48:43.870Z,3.33
2018-05-09T18:51:16.413Z,3.80
2018-05-09T18:53:48.952Z,3.50
2018-05-09T18:56:21.480Z,3.42
2018-05-09T18:58:54.021Z,3.92
2018-05-09T19:01:26.577Z,3.72
2018-05-09T19:03:59.107Z,3.60
2018-05-09T19:06:32.013Z,3.47
2018-05-09T19:09:04.564Z,4.18
2018-05-09T19:11:37.125Z,4.18
2018-05-09T19:14:09.671Z,3.90
2018-05-09T19:16:42.208Z,3.78
2018-05-09T19:19:14.757Z,3.83
2018-05-09T19:21:47.326Z,4.18
2018-05-09T19:24:19.854Z,3.70
2018-05-09T19:26:52.389Z,3.90
2018-05-09T19:29:24.926Z,4.35
2018-05-09T19:31:57.470Z,3.78
2018-05-09T19:34:30.023Z,3.75
2018-05-09T19:37:02.567Z,3.87
2018-05-09T19:39:35.120Z,4.20
2018-05-09T19:42:07.682Z,4.07
2018-05-09T19:44:40.205Z,3.78
2018-05-09T19:47:12.748Z,3.85
2018-05-09T19:49:45.350Z,4.00
2018-05-09T19:52:17.894Z,4.55
2018-05-09T19:54:50.445Z,4.30
2018-05-09T19:57:23.010Z,3.90
2018-05-09T19:59:55.570Z,3.92
2018-05-09T20:02:28.121Z,4.37
2018-05-09T20:05:00.688Z,4.55
2018-05-09T20:07:33.243Z,4.10
2018-05-09T20:10:05.782Z,3.92
2018-05-09T20:12:38.311Z,4.07
2018-05-09T20:15:10.843Z,4.50
2018-05-09T20:17:43.385Z,4.03
2018-05-09T20:20:15.968Z,4.47
2018-05-09T20:22:48.525Z,4.22
2018-05-09T20:25:21.060Z,4.18
2018-05-09T20:27:53.623Z,4.20
2018-05-09T20:30:31.810Z,4.03
2018-05-09T20:33:04.375Z,4.70
2018-05-09T20:35:36.902Z,4.07
2018-05-09T20:38:09.450Z,4.05
2018-05-09T20:40:41.985Z,4.40
2018-05-09T20:43:14.537Z,4.53
2018-05-09T20:45:47.070Z,4.90
2018-05-09T20:48:19.629Z,4.20
2018-05-09T20:50:52.157Z,4.55
2018-05-09T20:53:24.697Z,4.78
2018-05-09T20:55:57.216Z,4.07
2018-05-09T20:58:29.769Z,4.18
2018-05-09T21:01:14.032Z,4.57
2018-05-09T21:03:46.614Z,4.97
2018-05-09T21:06:19.151Z,4.72
2018-05-09T21:08:51.747Z,4.40
2018-05-09T21:11:24.287Z,5.00
2018-05-09T21:13:57.802Z,4.30
2018-05-09T21:16:30.310Z,4.82
2018-05-09T21:19:02.851Z,4.65
2018-05-09T21:21:35.389Z,4.57
2018-05-09T21:24:07.937Z,5.15
2018-05-09T21:26:40.460Z,5.00
2018-05-09T21:29:13.015Z,5.03
2018-05-09T21:31:45.551Z,4.50
2018-05-09T21:34:18.089Z,5.22
2018-05-09T21:36:50.611Z,5.07
2018-05-09T21:39:23.161Z,4.30
2018-05-09T21:41:55.689Z,4.70
2018-05-09T21:44:28.256Z,4.70
2018-05-09T21:47:00.791Z,5.00
2018-05-09T21:49:33.346Z,5.30
2018-05-09T21:52:05.875Z,4.55
2018-05-09T21:54:38.423Z,5.40
2018-05-09T21:57:10.953Z,5.20
2018-05-09T21:59:43.501Z,5.07
2018-05-09T22:02:16.032Z,5.20
2018-05-09T22:04:48.574Z,5.40
2018-05-09T22:07:21.105Z,5.20
2018-05-09T22:09:53.665Z,4.90
2018-05-09T22:12:26.189Z,4.87
2018-05-09T22:14:58.725Z,4.95
2018-05-09T22:17:33.785Z,5.62
2018-05-09T22:20:06.341Z,5.22
2018-05-09T22:22:38.894Z,5.40
2018-05-09T22:25:11.414Z,4.93
2018-05-09T22:27:43.954Z,5.32
2018-05-09T22:30:16.501Z,5.37
2018-05-09T22:32:49.053Z,5.70
2018-05-09T22:35:21.573Z,5.40
2018-05-09T22:37:54.198Z,5.10
2018-05-09T22:40:26.758Z,5.10
2018-05-09T22:42:59.339Z,5.40
2018-05-09T22:45:32.304Z,6.00
2018-05-09T22:48:04.887Z,5.32
2018-05-09T22:50:37.443Z,6.15
2018-05-09T22:53:10.056Z,5.35
2018-05-09T22:55:42.624Z,5.55
2018-05-09T22:58:15.209Z,5.55
2018-05-09T23:00:47.740Z,5.72
2018-05-09T23:03:20.285Z,6.20
2018-05-09T23:05:52.829Z,5.62
2018-05-09T23:08:25.392Z,6.25
2018-05-09T23:10:57.915Z,6.70
2018-05-09T23:13:30.465Z,5.90
2018-05-09T23:16:02.993Z,5.85
2018-05-09T23:18:35.557Z,5.80
2018-05-09T23:21:08.084Z,5.65
2018-05-09T23:23:40.625Z,5.43
2018-05-09T23:26:13.153Z,6.00
2018-05-09T23:28:45.695Z,5.82
2018-05-09T23:31:18.209Z,6.45
2018-05-09T23:33:50.757Z,5.97
2018-05-09T23:36:23.281Z,6.32
2018-05-09T23:38:55.856Z,6.07
2018-05-09T23:41:28.383Z,5.40
2018-05-09T23:44:00.969Z,6.30
2018-05-09T23:46:33.485Z,6.40
2018-05-09T23:51:44.931Z,5.60
2018-05-09T23:54:17.476Z,5.62
2018-05-09T23:56:50.001Z,6.12
2018-05-09T23:59:22.566Z,5.93
